Wheeler, TX

4:29 AM CDT on August 28, 2014 (GMT -0500)
RAWS WHEELER RAWS TX US | Change Station
CLOSE
Current Station
Personal Weather Station
Location: Wheeler, TX
Elevation: 2375 ft
Nearby Weather Stations

Elev 2375 ft 35.45 °N, 100.20 °W | Updated 51 minutes ago

Partly Cloudy
Partly Cloudy
74 °F
Feels Like 76 °F
N
11
Wind Variable Wind from SSE
Gusts 15.0 mph

Today
High -- | Low -- °F
--% Chance of Precip.
Yesterday
High -- | Low -- °F
Precip. -- in
7:10 AM 8:13 PM
Waxing Crescent, 7% visible
Pressure 29.98 in
Visibility 10.0 miles
Clouds Clear
Heat Index 76 °F
Dew Point 63 °F
Humidity 68%
Rainfall 0.00 in
Snow Depth Not available.
UV 0 out of 12
Pollen 9.20 out of 12
Air Quality Not available.
Flu Activity Not available.
METAR KHHF 280915Z AUTO 21006KT 10SM CLR 23/19 A2998 RMK AO2 T02310190

More Conditions Fewer Conditions

Pressure 29.98 in
Visibility 10.0 miles
Clouds Clear
Heat Index 76 °F
Dew Point 63 °F
Humidity 68%
Rainfall 0.00 in
Snow Depth Not available.
UV 0 out of 12
Pollen 9.20 out of 12
Air Quality Not available.
Flu Activity Not available.
METAR KHHF 280915Z AUTO 21006KT 10SM CLR 23/19 A2998 RMK AO2 T02310190

More Conditions Fewer Conditions

Nowcast | as of 4:15 am CDT on August 28, 2014

Isolated showers continue to move east and northeast at 20 miles an hour across the southeastern Texas Panhandle through 6 am this morning. Most of the activity will stay southeast of a line from Allison to Hedley with rainfall amounts up to a tenth of an inch possible.

×

10-Day Weather Forecast

Almanac

Astronomy

Aug. 28, 2014 Rise Set
Actual Time 7:10 AM CDT 8:13 PM CDT
Civil Twilight 6:44 AM CDT 8:39 PM CDT
Nautical Twilight 6:13 AM CDT 9:10 PM CDT
Astronomical Twilight 5:40 AM CDT 9:42 PM CDT
Moon 9:56 AM CDT 9:47 PM CDT
Length of Visible Light 13h 55m
Length of Day
13h 03m
Tomorrow will be 2m 6s shorter.
Waxing Crescent, 7% of the Moon is Illuminated
Today
Waxing Crescent
Sep 2
First Quarter
Sep 8
Full
Sep 15
Last Quarter
Sep 24
New

Today's Extremes

State Highs State Lows

Community

WunderPhotos

Upload Photos

1,747,918 photos uploaded!

Nearby

Snow Depth

Station Depth Elevation
No new snow has been reported.

Earthquake Activity

City Distance Mag. Time & Date
No recent earthquake activity has been reported nearby.
Minimum magnitude displayed is 2.5.

Coastal Water Temperatures

Place Temperature
No Stations Reporting

Nearby Weather Stations